createdAt,value
2023-05-05T00:00:23.023Z,62.55
2023-05-05T00:02:49.632Z,69.70
2023-05-05T00:05:17.976Z,69.26
2023-05-05T00:07:44.601Z,64.33
2023-05-05T00:10:11.212Z,72.52
2023-05-05T00:12:37.852Z,68.83
2023-05-05T00:15:05.317Z,67.85
2023-05-05T00:17:31.942Z,67.57
2023-05-05T00:19:59.642Z,67.91
2023-05-05T00:22:27.675Z,68.04
2023-05-05T00:24:54.273Z,67.63
2023-05-05T00:27:20.836Z,67.82
2023-05-05T00:29:47.430Z,64.46
2023-05-05T00:32:14.071Z,77.50
2023-05-05T00:34:40.624Z,70.99
2023-05-05T00:37:07.416Z,60.77
2023-05-05T00:39:35.438Z,69.03
2023-05-05T00:42:02.035Z,68.27
2023-05-05T00:44:36.908Z,59.54
2023-05-05T00:47:04.095Z,67.87
2023-05-05T00:49:31.409Z,67.84
2023-05-05T00:51:58.455Z,68.04
2023-05-05T00:54:25.415Z,67.55
2023-05-05T00:56:53.612Z,67.94
2023-05-05T00:59:20.774Z,64.77
2023-05-05T01:04:25.725Z,69.61
2023-05-05T01:06:57.792Z,68.81
2023-05-05T01:09:34.305Z,68.46
2023-05-05T01:12:14.514Z,68.01
2023-05-05T01:14:45.105Z,68.19
2023-05-05T01:17:17.093Z,60.65
2023-05-05T01:19:56.971Z,67.80
2023-05-05T01:22:28.725Z,73.64
2023-05-05T01:25:12.341Z,71.60
2023-05-05T01:27:59.859Z,68.23
2023-05-05T01:30:39.036Z,59.68
2023-05-05T01:33:11.049Z,70.34
2023-05-05T01:35:41.857Z,68.05
2023-05-05T01:38:15.162Z,67.54
2023-05-05T01:40:47.045Z,64.62
2023-05-05T01:43:15.855Z,60.15
2023-05-05T01:45:44.953Z,68.20
2023-05-05T01:48:16.881Z,67.58
2023-05-05T01:50:44.117Z,67.31
2023-05-05T01:53:11.986Z,64.33
2023-05-05T01:55:40.566Z,72.73
2023-05-05T01:58:08.147Z,81.34
2023-05-05T02:00:35.262Z,77.16
2023-05-05T02:03:04.859Z,72.19
2023-05-05T02:05:34.057Z,69.36
2023-05-05T02:08:02.515Z,61.81
2023-05-05T02:10:30.123Z,68.40
2023-05-05T02:12:58.965Z,67.98
2023-05-05T02:15:27.858Z,67.88
2023-05-05T02:17:55.337Z,67.96
2023-05-05T02:20:24.067Z,67.87
2023-05-05T02:22:52.001Z,65.70
2023-05-05T02:25:18.559Z,71.09
2023-05-05T02:27:47.716Z,69.11
2023-05-05T02:30:18.241Z,68.24
2023-05-05T02:32:49.491Z,61.97
2023-05-05T02:35:20.069Z,70.64
2023-05-05T02:37:50.741Z,68.46
2023-05-05T02:40:22.869Z,71.17
2023-05-05T02:42:54.261Z,68.73
2023-05-05T02:45:22.719Z,68.65
2023-05-05T02:47:49.363Z,67.36
2023-05-05T02:50:16.060Z,64.56
2023-05-05T02:52:43.052Z,73.41
2023-05-05T02:55:10.468Z,68.07
2023-05-05T02:57:44.604Z,71.24
2023-05-05T03:00:19.230Z,71.40
2023-05-05T03:02:53.708Z,74.03
2023-05-05T03:05:23.491Z,76.23
2023-05-05T03:07:55.880Z,70.75
2023-05-05T03:10:29.021Z,71.13
2023-05-05T03:12:59.767Z,76.76
2023-05-05T03:15:31.271Z,70.15
2023-05-05T03:17:59.275Z,69.11
2023-05-05T03:20:26.692Z,68.63
2023-05-05T03:22:54.778Z,70.53
2023-05-05T03:25:21.538Z,71.35
2023-05-05T03:27:48.334Z,71.25
2023-05-05T03:30:16.459Z,72.19
2023-05-05T03:32:43.123Z,68.85
2023-05-05T03:35:09.868Z,69.66
2023-05-05T03:37:36.457Z,68.77
2023-05-05T03:40:03.862Z,68.39
2023-05-05T03:42:30.561Z,68.82
2023-05-05T03:44:57.334Z,68.17
2023-05-05T03:47:25.341Z,68.96
2023-05-05T03:49:52.472Z,68.68
2023-05-05T03:52:19.078Z,65.48
2023-05-05T03:54:46.124Z,71.94
2023-05-05T03:57:12.807Z,77.59
2023-05-05T03:59:39.393Z,79.34
2023-05-05T04:02:06.028Z,76.31
2023-05-05T04:04:34.075Z,70.70
2023-05-05T04:07:00.874Z,69.66
2023-05-05T04:09:27.524Z,69.01
2023-05-05T04:11:54.100Z,70.96
2023-05-05T04:14:20.767Z,69.14
2023-05-05T04:16:47.359Z,71.95
2023-05-05T04:19:14.073Z,68.91
2023-05-05T04:21:42.381Z,70.91
2023-05-05T04:24:09.545Z,73.20
2023-05-05T04:26:36.460Z,76.40
2023-05-05T04:29:03.211Z,75.89
2023-05-05T04:31:30.658Z,79.15
2023-05-05T04:33:57.305Z,71.61
2023-05-05T04:36:23.915Z,69.35
2023-05-05T04:38:51.910Z,76.54
2023-05-05T04:41:18.548Z,79.18
2023-05-05T04:43:45.558Z,77.50
2023-05-05T04:46:12.152Z,71.13
2023-05-05T04:48:38.865Z,70.52
2023-05-05T04:51:05.837Z,71.26
2023-05-05T04:53:32.570Z,69.58
2023-05-05T04:56:02.592Z,75.57
2023-05-05T04:58:29.331Z,70.79
2023-05-05T05:00:55.973Z,69.69
2023-05-05T05:03:22.806Z,69.67
2023-05-05T05:05:49.700Z,69.77
2023-05-05T05:08:17.072Z,69.47
2023-05-05T05:10:43.885Z,74.56
2023-05-05T05:13:12.948Z,70.82
2023-05-05T05:15:39.764Z,69.40
2023-05-05T05:18:06.645Z,71.10
2023-05-05T05:20:33.362Z,68.73
2023-05-05T05:23:02.129Z,69.10
2023-05-05T05:25:29.050Z,73.00
2023-05-05T05:30:30.134Z,75.50
2023-05-05T05:32:56.782Z,77.66
2023-05-05T05:35:23.452Z,78.00
2023-05-05T05:37:51.729Z,71.59
2023-05-05T05:40:18.664Z,69.86
2023-05-05T05:42:45.272Z,79.10
2023-05-05T05:45:11.958Z,78.47
2023-05-05T05:47:40.053Z,72.72
2023-05-05T05:50:07.921Z,70.49
2023-05-05T05:52:36.103Z,69.71
2023-05-05T05:55:02.781Z,69.79
2023-05-05T05:57:29.373Z,69.72
2023-05-05T05:59:56.503Z,70.04
2023-05-05T06:02:23.455Z,69.89
2023-05-05T06:04:51.594Z,69.70
2023-05-05T06:07:18.399Z,75.91
2023-05-05T06:09:45.321Z,78.94
2023-05-05T06:12:11.925Z,75.44
2023-05-05T06:14:38.583Z,76.68
2023-05-05T06:17:05.302Z,75.91
2023-05-05T06:19:31.971Z,72.01
2023-05-05T06:22:00.020Z,75.24
2023-05-05T06:24:26.639Z,74.67
2023-05-05T06:26:53.198Z,70.92
2023-05-05T06:29:19.879Z,75.20
2023-05-05T06:31:47.017Z,70.10
2023-05-05T06:34:13.721Z,74.48
2023-05-05T06:36:40.432Z,70.28
2023-05-05T06:39:08.499Z,75.42
2023-05-05T06:41:35.178Z,76.43
2023-05-05T06:44:02.196Z,73.99
2023-05-05T06:46:29.061Z,74.07
2023-05-05T06:48:55.713Z,70.13
2023-05-05T06:51:22.773Z,73.50
2023-05-05T06:53:49.420Z,72.68
2023-05-05T06:56:17.422Z,72.37
2023-05-05T06:58:44.020Z,69.98
2023-05-05T07:01:10.654Z,69.49
2023-05-05T07:03:37.316Z,71.98
2023-05-05T07:06:04.166Z,69.97
2023-05-05T07:08:30.854Z,72.06
2023-05-05T07:10:57.495Z,72.00
2023-05-05T07:13:25.505Z,68.27
2023-05-05T07:15:52.160Z,70.89
2023-05-05T07:18:20.337Z,64.87
2023-05-05T07:20:47.297Z,64.89
2023-05-05T07:23:13.946Z,64.90
2023-05-05T07:25:40.609Z,66.43
2023-05-05T07:28:07.276Z,66.98
2023-05-05T07:30:35.241Z,65.55
2023-05-05T07:33:01.859Z,63.71
2023-05-05T07:35:28.641Z,62.82
2023-05-05T07:37:55.190Z,62.19
2023-05-05T07:40:21.977Z,67.85
2023-05-05T07:42:48.580Z,64.50
2023-05-05T07:45:15.224Z,60.82
2023-05-05T07:47:43.156Z,56.18
2023-05-05T07:50:10.676Z,59.90
2023-05-05T07:52:44.948Z,56.74
2023-05-05T07:55:14.909Z,60.42
2023-05-05T07:57:41.569Z,55.84
2023-05-05T08:00:09.657Z,56.27
2023-05-05T08:02:36.610Z,55.10
2023-05-05T08:05:05.338Z,59.19
2023-05-05T08:07:32.128Z,54.29
2023-05-05T08:09:58.903Z,53.45
2023-05-05T08:12:25.544Z,56.04
2023-05-05T08:14:52.146Z,50.26
2023-05-05T08:17:18.750Z,51.09
2023-05-05T08:19:45.362Z,57.40
2023-05-05T08:22:14.077Z,55.72
2023-05-05T08:24:40.696Z,58.65
2023-05-05T08:27:07.321Z,57.99
2023-05-05T08:29:33.934Z,51.87
2023-05-05T08:32:00.681Z,51.42
2023-05-05T08:34:27.327Z,53.93
2023-05-05T08:36:54.002Z,48.46
2023-05-05T08:39:22.131Z,48.32
2023-05-05T08:41:49.038Z,51.46
2023-05-05T08:44:15.752Z,53.37
2023-05-05T08:46:43.034Z,52.23
2023-05-05T08:49:15.114Z,47.93
2023-05-05T08:51:44.276Z,47.23
2023-05-05T08:54:17.655Z,49.27
2023-05-05T08:56:47.043Z,50.58
2023-05-05T08:59:14.578Z,46.74
2023-05-05T09:01:42.821Z,44.72
2023-05-05T09:04:10.899Z,46.82
2023-05-05T09:06:37.950Z,43.52
2023-05-05T09:09:04.527Z,51.42
2023-05-05T09:11:32.512Z,57.36
2023-05-05T09:14:01.737Z,47.19
2023-05-05T09:16:28.470Z,46.77
2023-05-05T09:19:01.961Z,45.23
2023-05-05T09:21:29.260Z,48.14
2023-05-05T09:24:09.086Z,54.56
2023-05-05T09:26:37.781Z,50.06
2023-05-05T09:29:06.113Z,49.36
2023-05-05T09:31:33.982Z,50.85
2023-05-05T09:34:01.174Z,47.57
2023-05-05T09:36:47.995Z,47.88
2023-05-05T09:39:16.778Z,47.69
2023-05-05T09:41:44.275Z,48.27
2023-05-05T09:44:12.988Z,48.04
2023-05-05T09:46:51.053Z,50.27
2023-05-05T09:49:19.128Z,50.13
2023-05-05T09:51:46.064Z,51.62
2023-05-05T09:54:23.220Z,50.15
2023-05-05T09:56:50.894Z,46.88
2023-05-05T09:59:19.739Z,48.82
2023-05-05T10:01:46.661Z,48.12
2023-05-05T10:04:24.060Z,51.77
2023-05-05T10:06:50.842Z,46.23
2023-05-05T10:09:17.471Z,43.31
2023-05-05T10:11:46.420Z,45.33
2023-05-05T10:14:15.699Z,51.56
2023-05-05T10:16:46.828Z,47.58
2023-05-05T10:19:15.175Z,48.59
2023-05-05T10:21:46.432Z,50.00
2023-05-05T10:24:17.737Z,47.31
2023-05-05T10:26:46.295Z,47.46
2023-05-05T10:29:21.437Z,47.36
2023-05-05T10:31:52.822Z,52.31
2023-05-05T10:34:27.152Z,49.71
2023-05-05T10:36:55.146Z,50.59
2023-05-05T10:39:23.782Z,56.48
2023-05-05T10:41:52.100Z,54.61
2023-05-05T10:44:19.747Z,55.51
2023-05-05T10:46:47.094Z,59.37
2023-05-05T10:49:24.167Z,60.02
2023-05-05T10:52:00.221Z,48.40
2023-05-05T10:54:36.345Z,47.85
2023-05-05T10:57:06.988Z,54.07
2023-05-05T10:59:40.966Z,46.97
2023-05-05T11:02:24.311Z,47.92
2023-05-05T11:05:22.852Z,51.50
2023-05-05T11:07:50.453Z,48.94
2023-05-05T11:10:20.535Z,47.61
2023-05-05T11:13:19.493Z,43.32
2023-05-05T11:15:46.519Z,45.65
2023-05-05T11:18:33.969Z,44.80
2023-05-05T11:21:15.995Z,42.71
2023-05-05T11:23:47.635Z,42.05
2023-05-05T11:26:15.389Z,45.56
2023-05-05T11:29:04.680Z,41.19
2023-05-05T11:31:31.917Z,45.08
2023-05-05T11:34:34.953Z,45.60
2023-05-05T11:37:07.623Z,43.97
2023-05-05T11:39:49.774Z,43.65
2023-05-05T11:42:25.584Z,45.03
2023-05-05T11:44:53.195Z,42.33
2023-05-05T11:47:40.939Z,43.01
2023-05-05T11:50:19.277Z,50.23
2023-05-05T11:52:47.518Z,45.66
2023-05-05T11:55:20.936Z,44.23
2023-05-05T11:57:47.586Z,43.80
2023-05-05T12:00:15.269Z,46.62
2023-05-05T12:02:42.094Z,44.22
2023-05-05T12:05:09.060Z,46.81
2023-05-05T12:07:35.750Z,45.14
2023-05-05T12:10:04.237Z,45.03
2023-05-05T12:12:36.083Z,49.58
2023-05-05T12:15:03.664Z,53.67
2023-05-05T12:17:38.780Z,54.51
2023-05-05T12:20:06.650Z,48.06
2023-05-05T12:22:33.557Z,50.54
2023-05-05T12:25:04.092Z,48.66
2023-05-05T12:27:31.297Z,50.11
2023-05-05T12:30:11.597Z,47.25
2023-05-05T12:32:38.429Z,45.38
2023-05-05T12:35:07.770Z,46.83
2023-05-05T12:37:34.399Z,44.98
2023-05-05T12:40:01.137Z,44.15
2023-05-05T12:42:29.427Z,45.35
2023-05-05T12:44:56.714Z,46.05
2023-05-05T12:47:34.988Z,44.23
2023-05-05T12:50:03.238Z,45.42
2023-05-05T12:52:42.364Z,45.69
2023-05-05T12:55:10.264Z,44.53
2023-05-05T12:57:38.699Z,43.68
2023-05-05T13:00:16.193Z,42.86
2023-05-05T13:02:42.949Z,43.70
2023-05-05T13:05:10.613Z,49.03
2023-05-05T13:07:49.810Z,46.56
2023-05-05T13:10:16.402Z,47.30
2023-05-05T13:12:44.395Z,49.39
2023-05-05T13:15:12.174Z,47.07
2023-05-05T13:17:39.053Z,46.25
2023-05-05T13:20:07.729Z,47.81
2023-05-05T13:22:34.314Z,42.16
2023-05-05T13:25:00.893Z,44.05
2023-05-05T13:27:27.654Z,43.11
2023-05-05T13:29:55.834Z,52.25
2023-05-05T13:32:22.519Z,53.10
2023-05-05T13:34:49.102Z,52.45
2023-05-05T13:37:15.717Z,48.11
2023-05-05T13:39:42.652Z,49.19
2023-05-05T13:42:09.732Z,48.73
2023-05-05T13:44:36.358Z,50.20
2023-05-05T13:47:04.583Z,48.86
2023-05-05T13:49:31.222Z,46.23
2023-05-05T13:51:58.460Z,49.18
2023-05-05T13:54:25.078Z,45.19
2023-05-05T13:56:51.817Z,47.12
2023-05-05T13:59:18.455Z,46.33
2023-05-05T14:01:45.086Z,47.51
2023-05-05T14:04:13.089Z,54.50
2023-05-05T14:06:39.716Z,50.12
2023-05-05T14:09:07.911Z,53.79
2023-05-05T14:11:34.623Z,54.06
2023-05-05T14:14:01.416Z,45.62
2023-05-05T14:16:28.085Z,44.29
2023-05-05T14:18:54.807Z,44.80
2023-05-05T14:21:22.736Z,48.25
2023-05-05T14:23:49.455Z,49.03
2023-05-05T14:26:16.157Z,42.50
2023-05-05T14:28:43.558Z,44.84
2023-05-05T14:31:11.142Z,44.83
2023-05-05T14:33:37.812Z,52.93
2023-05-05T14:36:04.998Z,51.68
2023-05-05T14:38:33.063Z,52.36
2023-05-05T14:40:59.697Z,50.74
2023-05-05T14:43:26.299Z,49.32
2023-05-05T14:45:53.183Z,45.46
2023-05-05T14:48:22.174Z,47.96
2023-05-05T14:50:49.813Z,50.55
2023-05-05T14:53:16.795Z,49.48
2023-05-05T14:55:44.822Z,51.27
2023-05-05T14:58:11.413Z,52.56
2023-05-05T15:00:38.130Z,54.35
2023-05-05T15:03:04.821Z,51.09
2023-05-05T15:05:31.462Z,47.33
2023-05-05T15:07:57.997Z,50.47
2023-05-05T15:10:24.988Z,53.14
2023-05-05T15:12:53.179Z,53.44
2023-05-05T15:15:19.916Z,52.46
2023-05-05T15:17:46.563Z,56.13
2023-05-05T15:20:13.301Z,56.10
2023-05-05T15:22:40.100Z,58.16
2023-05-05T15:25:10.979Z,55.06
2023-05-05T15:27:38.081Z,55.38
2023-05-05T15:30:07.552Z,57.59
2023-05-05T15:32:34.518Z,54.68
2023-05-05T15:35:01.267Z,55.28
2023-05-05T15:37:28.955Z,57.28
2023-05-05T15:39:55.830Z,51.67
2023-05-05T15:42:22.612Z,53.90
2023-05-05T15:44:49.229Z,49.71
2023-05-05T15:47:17.399Z,50.60
2023-05-05T15:49:44.191Z,53.29
2023-05-05T15:52:11.569Z,52.58
2023-05-05T15:57:04.582Z,54.68
2023-05-05T15:59:31.224Z,55.34
2023-05-05T16:01:57.842Z,53.98
2023-05-05T16:04:25.904Z,52.87
2023-05-05T16:06:52.915Z,55.26
2023-05-05T16:09:19.536Z,54.78
2023-05-05T16:11:46.387Z,56.21
2023-05-05T16:14:13.078Z,52.22
2023-05-05T16:16:39.871Z,56.95
2023-05-05T16:19:06.516Z,53.81
2023-05-05T16:21:34.506Z,56.08
2023-05-05T16:24:01.331Z,58.80
2023-05-05T16:26:28.094Z,59.60
2023-05-05T16:28:54.686Z,59.50
2023-05-05T16:31:21.297Z,58.65
2023-05-05T16:33:47.963Z,56.55
2023-05-05T16:36:14.732Z,59.29
2023-05-05T16:38:44.031Z,59.41
2023-05-05T16:41:10.619Z,55.47
2023-05-05T16:43:37.412Z,58.72
2023-05-05T16:46:04.431Z,61.21
2023-05-05T16:48:31.071Z,60.68
2023-05-05T16:50:57.888Z,60.74
2023-05-05T16:53:24.659Z,60.33
2023-05-05T16:55:53.375Z,60.46
2023-05-05T16:58:20.466Z,60.49
2023-05-05T17:00:48.982Z,57.18
2023-05-05T17:03:16.522Z,60.55
2023-05-05T17:05:43.687Z,61.11
2023-05-05T17:08:14.347Z,58.48
2023-05-05T17:10:41.436Z,61.68
2023-05-05T17:13:10.827Z,60.97
2023-05-05T17:15:37.794Z,58.84
2023-05-05T17:18:05.806Z,61.63
2023-05-05T17:20:33.465Z,61.48
2023-05-05T17:23:01.998Z,61.54
2023-05-05T17:25:28.698Z,61.76
2023-05-05T17:27:56.107Z,60.39
2023-05-05T17:30:24.424Z,61.32
2023-05-05T17:32:51.120Z,60.79
2023-05-05T17:35:18.201Z,60.52
2023-05-05T17:37:45.035Z,60.94
2023-05-05T17:40:11.935Z,58.49
2023-05-05T17:42:38.947Z,60.54
2023-05-05T17:45:06.622Z,60.48
2023-05-05T17:47:35.031Z,60.58
2023-05-05T17:50:01.999Z,60.85
2023-05-05T17:52:28.640Z,60.92
2023-05-05T17:54:55.439Z,61.43
2023-05-05T17:57:22.804Z,60.92
2023-05-05T17:59:50.101Z,61.18
2023-05-05T18:02:17.031Z,61.18
2023-05-05T18:04:45.084Z,61.34
2023-05-05T18:07:12.294Z,61.29
2023-05-05T18:09:39.023Z,61.33
2023-05-05T18:12:06.927Z,61.18
2023-05-05T18:14:33.840Z,61.34
2023-05-05T18:17:01.285Z,61.26
2023-05-05T18:19:27.911Z,59.46
2023-05-05T18:21:56.039Z,61.42
2023-05-05T18:24:22.761Z,61.57
2023-05-05T18:26:50.531Z,61.54
2023-05-05T18:29:17.670Z,61.51
2023-05-05T18:31:45.435Z,61.32
2023-05-05T18:34:12.496Z,61.76
2023-05-05T18:36:39.172Z,61.45
2023-05-05T18:39:07.164Z,61.41
2023-05-05T18:41:34.108Z,61.59
2023-05-05T18:44:00.766Z,61.57
2023-05-05T18:46:27.892Z,61.74
2023-05-05T18:48:54.620Z,61.29
2023-05-05T18:51:21.359Z,61.20
2023-05-05T18:53:48.041Z,62.79
2023-05-05T18:56:16.066Z,62.43
2023-05-05T18:58:42.846Z,63.44
2023-05-05T19:01:09.680Z,61.82
2023-05-05T19:03:36.727Z,61.69
2023-05-05T19:06:05.682Z,62.05
2023-05-05T19:08:32.421Z,61.83
2023-05-05T19:10:59.033Z,60.29
2023-05-05T19:13:26.982Z,61.63
2023-05-05T19:15:54.933Z,61.76
2023-05-05T19:18:21.558Z,61.58
2023-05-05T19:20:48.198Z,61.98
2023-05-05T19:23:14.821Z,62.81
2023-05-05T19:25:41.860Z,61.53
2023-05-05T19:28:10.876Z,63.72
2023-05-05T19:30:39.158Z,60.97
2023-05-05T19:33:05.927Z,65.81
2023-05-05T19:35:32.710Z,63.20
2023-05-05T19:37:59.900Z,61.49
2023-05-05T19:40:26.658Z,65.63
2023-05-05T19:42:53.559Z,64.74
2023-05-05T19:45:21.095Z,62.85
2023-05-05T19:47:49.287Z,57.81
2023-05-05T19:50:16.101Z,63.04
2023-05-05T19:52:42.844Z,62.91
2023-05-05T19:55:13.255Z,58.06
2023-05-05T19:57:40.365Z,66.18
2023-05-05T20:00:08.455Z,64.48
2023-05-05T20:02:37.001Z,63.88
2023-05-05T20:05:06.563Z,62.63
2023-05-05T20:07:33.095Z,62.43
2023-05-05T20:10:00.706Z,62.72
2023-05-05T20:12:27.383Z,60.47
2023-05-05T20:14:54.037Z,63.57
2023-05-05T20:17:21.349Z,63.00
2023-05-05T20:19:48.174Z,62.41
2023-05-05T20:22:17.729Z,59.09
2023-05-05T20:24:44.365Z,64.67
2023-05-05T20:27:11.140Z,63.58
2023-05-05T20:29:37.849Z,62.87
2023-05-05T20:32:05.793Z,62.74
2023-05-05T20:34:32.605Z,62.54
2023-05-05T20:36:59.342Z,62.33
2023-05-05T20:39:27.389Z,62.52
2023-05-05T20:41:54.188Z,62.83
2023-05-05T20:44:20.848Z,62.63
2023-05-05T20:46:47.721Z,62.76
2023-05-05T20:49:14.369Z,62.42
2023-05-05T20:51:41.040Z,62.61
2023-05-05T20:54:07.697Z,62.63
2023-05-05T20:56:35.697Z,62.43
2023-05-05T20:59:03.983Z,62.88
2023-05-05T21:01:30.797Z,71.26
2023-05-05T21:03:57.537Z,66.51
2023-05-05T21:06:24.328Z,63.57
2023-05-05T21:08:50.891Z,63.23
2023-05-05T21:11:17.482Z,62.91
2023-05-05T21:13:45.401Z,62.67
2023-05-05T21:16:12.083Z,62.65
2023-05-05T21:18:38.661Z,62.81
2023-05-05T21:21:05.253Z,62.61
2023-05-05T21:23:31.896Z,62.92
2023-05-05T21:25:58.972Z,62.78
2023-05-05T21:28:25.662Z,67.47
2023-05-05T21:33:23.160Z,71.55
2023-05-05T21:35:49.736Z,65.65
2023-05-05T21:38:16.646Z,66.66
2023-05-05T21:40:43.251Z,66.03
2023-05-05T21:43:09.826Z,62.57
2023-05-05T21:45:36.394Z,70.84
2023-05-05T21:48:04.590Z,65.00
2023-05-05T21:50:31.206Z,63.64
2023-05-05T21:52:58.015Z,63.14
2023-05-05T21:55:24.747Z,63.38
2023-05-05T21:57:51.352Z,63.27
2023-05-05T22:00:18.176Z,62.97
2023-05-05T22:02:45.348Z,62.87
2023-05-05T22:05:13.450Z,63.05
2023-05-05T22:07:40.714Z,62.85
2023-05-05T22:10:08.504Z,62.34
2023-05-05T22:12:35.308Z,76.31
2023-05-05T22:15:01.974Z,68.07
2023-05-05T22:17:28.605Z,66.92
2023-05-05T22:19:55.367Z,69.70
2023-05-05T22:22:23.292Z,64.49
2023-05-05T22:24:50.009Z,63.85
2023-05-05T22:27:16.619Z,63.55
2023-05-05T22:29:43.236Z,63.25
2023-05-05T22:32:09.852Z,63.17
2023-05-05T22:34:36.509Z,63.29
2023-05-05T22:37:03.197Z,63.22
2023-05-05T22:39:31.223Z,63.38
2023-05-05T22:41:58.049Z,62.98
2023-05-05T22:44:24.681Z,67.12
2023-05-05T22:46:51.281Z,69.68
2023-05-05T22:49:18.007Z,76.07
2023-05-05T22:51:44.884Z,66.60
2023-05-05T22:54:11.563Z,67.00
2023-05-05T22:56:39.493Z,64.89
2023-05-05T22:59:06.112Z,63.73
2023-05-05T23:01:33.322Z,63.36
2023-05-05T23:04:00.021Z,63.62
2023-05-05T23:06:27.801Z,59.21
2023-05-05T23:08:54.425Z,72.61
2023-05-05T23:11:21.059Z,64.78
2023-05-05T23:13:49.026Z,63.88
2023-05-05T23:16:15.745Z,63.69
2023-05-05T23:18:42.498Z,65.49
2023-05-05T23:21:09.877Z,64.35
2023-05-05T23:23:36.490Z,63.64
2023-05-05T23:26:03.100Z,63.52
2023-05-05T23:28:29.690Z,63.41
2023-05-05T23:30:57.723Z,59.69
2023-05-05T23:33:24.540Z,64.89
2023-05-05T23:35:51.274Z,63.42
2023-05-05T23:38:17.956Z,63.18
2023-05-05T23:40:44.568Z,63.61
2023-05-05T23:43:12.051Z,63.06
2023-05-05T23:45:38.677Z,63.04
2023-05-05T23:48:06.830Z,63.36
2023-05-05T23:50:33.523Z,58.89
2023-05-05T23:53:00.160Z,63.21
2023-05-05T23:55:26.782Z,63.13
2023-05-05T23:57:53.440Z,62.99
